createdAt,value
2022-09-28T00:01:19.581Z,7.06
2022-09-28T00:03:48.457Z,7.02
2022-09-28T00:06:19.324Z,7.01
2022-09-28T00:08:47.146Z,7.01
2022-09-28T00:11:16.264Z,6.98
2022-09-28T00:13:44.573Z,6.96
2022-09-28T00:16:15.013Z,6.97
2022-09-28T00:18:42.960Z,6.97
2022-09-28T00:21:13.620Z,6.98
2022-09-28T00:23:55.888Z,7.00
2022-09-28T00:26:23.753Z,6.99
2022-09-28T00:28:55.694Z,7.01
2022-09-28T00:31:23.673Z,7.01
2022-09-28T00:33:52.512Z,7.01
2022-09-28T00:36:20.637Z,6.97
2022-09-28T00:38:48.115Z,7.00
2022-09-28T00:41:16.802Z,7.04
2022-09-28T00:43:44.278Z,7.08
2022-09-28T00:46:23.779Z,7.12
2022-09-28T00:49:03.022Z,7.15
2022-09-28T00:51:32.833Z,7.18
2022-09-28T00:54:04.252Z,7.21
2022-09-28T00:56:34.954Z,7.28
2022-09-28T00:59:04.642Z,7.26
2022-09-28T01:01:32.420Z,7.28
2022-09-28T01:04:01.434Z,7.24
2022-09-28T01:06:34.026Z,7.21
2022-09-28T01:09:05.345Z,7.23
2022-09-28T01:11:34.603Z,7.23
2022-09-28T01:14:02.462Z,7.17
2022-09-28T01:16:59.062Z,7.24
2022-09-28T01:19:55.183Z,7.23
2022-09-28T01:22:47.167Z,7.23
2022-09-28T01:25:28.766Z,7.21
2022-09-28T01:28:05.462Z,7.20
2022-09-28T01:30:43.185Z,7.17
2022-09-28T01:33:18.433Z,7.06
2022-09-28T01:35:53.770Z,7.06
2022-09-28T01:38:21.264Z,7.06
2022-09-28T01:40:50.218Z,7.03
2022-09-28T01:43:29.111Z,6.95
2022-09-28T01:46:15.577Z,7.03
2022-09-28T01:48:52.561Z,6.99
2022-09-28T01:51:29.337Z,6.98
2022-09-28T01:54:02.098Z,6.97
2022-09-28T01:56:36.949Z,6.96
2022-09-28T01:59:11.604Z,6.94
2022-09-28T02:01:44.176Z,6.92
2022-09-28T02:04:25.522Z,6.92
2022-09-28T02:07:02.621Z,6.90
2022-09-28T02:09:36.241Z,6.90
2022-09-28T02:12:28.851Z,6.92
2022-09-28T02:15:06.457Z,6.93
2022-09-28T02:17:34.026Z,6.96
2022-09-28T02:20:01.617Z,7.02
2022-09-28T02:22:40.611Z,7.06
2022-09-28T02:25:19.176Z,7.06
2022-09-28T02:27:56.991Z,7.09
2022-09-28T02:30:24.513Z,7.13
2022-09-28T02:32:55.678Z,7.14
2022-09-28T02:35:23.558Z,7.16
2022-09-28T02:37:51.476Z,7.15
2022-09-28T02:40:30.131Z,7.09
2022-09-28T02:43:19.197Z,7.07
2022-09-28T02:46:16.087Z,7.03
2022-09-28T02:49:04.904Z,7.06
2022-09-28T02:51:59.881Z,7.00
2022-09-28T02:54:39.048Z,7.02
2022-09-28T02:57:17.445Z,6.98
2022-09-28T02:59:47.643Z,7.03
2022-09-28T03:02:38.454Z,6.99
2022-09-28T03:05:21.286Z,7.03
2022-09-28T03:07:54.627Z,7.02
2022-09-28T03:10:46.570Z,6.99
2022-09-28T03:13:16.356Z,6.98
2022-09-28T03:15:48.585Z,6.93
2022-09-28T03:18:17.752Z,6.91
2022-09-28T03:20:45.345Z,6.91
2022-09-28T03:23:24.221Z,6.97
2022-09-28T03:25:52.091Z,6.98
2022-09-28T03:28:21.196Z,7.02
2022-09-28T03:30:48.790Z,7.04
2022-09-28T03:33:16.430Z,7.14
2022-09-28T03:35:47.727Z,7.14
2022-09-28T03:38:15.299Z,7.16
2022-09-28T03:40:42.768Z,7.14
2022-09-28T03:43:10.869Z,7.13
2022-09-28T03:45:38.348Z,7.05
2022-09-28T03:48:05.896Z,7.05
2022-09-28T03:50:33.337Z,7.02
2022-09-28T03:53:05.162Z,6.98
2022-09-28T03:55:32.633Z,6.94
2022-09-28T03:58:00.135Z,6.90
2022-09-28T04:00:27.941Z,6.84
2022-09-28T04:02:55.405Z,6.78
2022-09-28T04:05:22.934Z,6.74
2022-09-28T04:07:50.449Z,6.72
2022-09-28T04:10:17.910Z,6.70
2022-09-28T04:12:45.926Z,6.68
2022-09-28T04:15:13.415Z,6.64
2022-09-28T04:17:40.878Z,6.57
2022-09-28T04:20:08.987Z,6.61
2022-09-28T04:22:37.633Z,6.49
2022-09-28T04:25:06.011Z,6.52
2022-09-28T04:27:50.972Z,6.49
2022-09-28T04:30:18.980Z,6.46
2022-09-28T04:32:49.948Z,6.46
2022-09-28T04:35:17.859Z,6.48
2022-09-28T04:37:45.367Z,6.46
2022-09-28T04:40:12.845Z,6.47
2022-09-28T04:42:40.319Z,6.44
2022-09-28T04:45:08.470Z,6.47
2022-09-28T04:47:36.027Z,6.53
2022-09-28T04:50:03.520Z,6.64
2022-09-28T04:52:30.979Z,6.68
2022-09-28T04:54:58.430Z,6.71
2022-09-28T04:57:25.927Z,6.72
2022-09-28T04:59:53.369Z,6.71
2022-09-28T05:02:21.027Z,6.70
2022-09-28T05:04:48.564Z,6.67
2022-09-28T05:07:16.076Z,6.66
2022-09-28T05:09:43.764Z,6.56
2022-09-28T05:12:11.243Z,6.63
2022-09-28T05:14:38.960Z,6.59
2022-09-28T05:17:06.836Z,6.59
2022-09-28T05:19:34.845Z,6.54
2022-09-28T05:22:04.434Z,6.55
2022-09-28T05:24:32.184Z,6.53
2022-09-28T05:26:59.620Z,6.56
2022-09-28T05:29:30.165Z,6.51
2022-09-28T05:32:01.615Z,6.49
2022-09-28T05:34:29.527Z,6.52
2022-09-28T05:36:57.103Z,6.50
2022-09-28T05:39:24.645Z,6.53
2022-09-28T05:41:52.203Z,6.55
2022-09-28T05:44:19.830Z,6.40
2022-09-28T05:46:47.328Z,6.56
2022-09-28T05:49:14.852Z,6.59
2022-09-28T05:51:42.541Z,6.56
2022-09-28T05:54:10.136Z,6.56
2022-09-28T05:56:37.577Z,6.58
2022-09-28T05:59:06.224Z,6.51
2022-09-28T06:01:33.795Z,6.57
2022-09-28T06:04:01.570Z,6.55
2022-09-28T06:06:29.047Z,6.55
2022-09-28T06:08:57.055Z,6.57
2022-09-28T06:11:27.811Z,6.65
2022-09-28T06:13:56.380Z,6.72
2022-09-28T06:16:24.153Z,6.72
2022-09-28T06:18:51.688Z,6.57
2022-09-28T06:21:19.180Z,6.78
2022-09-28T06:23:49.263Z,6.90
2022-09-28T06:26:17.853Z,7.01
2022-09-28T06:28:45.481Z,7.05
2022-09-28T06:31:13.207Z,7.17
2022-09-28T06:33:42.037Z,7.24
2022-09-28T06:36:10.402Z,7.30
2022-09-28T06:38:38.074Z,7.34
2022-09-28T06:41:05.979Z,7.39
2022-09-28T06:43:34.993Z,7.47
2022-09-28T06:46:03.444Z,7.49
2022-09-28T06:48:33.415Z,7.59
2022-09-28T06:51:02.270Z,7.67
2022-09-28T06:53:31.357Z,7.76
2022-09-28T06:55:59.152Z,7.79
2022-09-28T06:58:28.148Z,7.91
2022-09-28T07:00:58.626Z,8.00
2022-09-28T07:03:27.054Z,8.10
2022-09-28T07:05:56.414Z,8.18
2022-09-28T07:08:25.957Z,8.30
2022-09-28T07:10:56.162Z,8.42
2022-09-28T07:13:48.930Z,8.55
2022-09-28T07:16:17.086Z,8.58
2022-09-28T07:18:44.731Z,8.76
2022-09-28T07:21:22.555Z,8.89
2022-09-28T07:23:54.580Z,8.98
2022-09-28T07:26:24.394Z,9.05
2022-09-28T07:28:52.726Z,9.23
2022-09-28T07:31:20.451Z,9.30
2022-09-28T07:33:51.139Z,9.49
2022-09-28T07:36:20.916Z,9.69
2022-09-28T07:38:48.884Z,9.76
2022-09-28T07:41:21.588Z,9.85
2022-09-28T07:43:49.803Z,9.97
2022-09-28T07:46:17.810Z,10.04
2022-09-28T07:48:48.905Z,10.21
2022-09-28T07:51:19.727Z,10.26
2022-09-28T07:53:48.102Z,10.27
2022-09-28T07:56:17.352Z,10.42
2022-09-28T07:58:44.970Z,10.50
2022-09-28T08:01:14.985Z,10.55
2022-09-28T08:03:45.250Z,10.74
2022-09-28T08:06:14.752Z,10.85
2022-09-28T08:08:44.622Z,10.95
2022-09-28T08:11:18.772Z,10.93
2022-09-28T08:13:46.767Z,10.96
2022-09-28T08:16:14.480Z,11.03
2022-09-28T08:18:42.214Z,11.07
2022-09-28T08:21:28.892Z,11.15
2022-09-28T08:23:56.462Z,11.20
2022-09-28T08:26:23.916Z,11.28
2022-09-28T08:28:51.777Z,11.43
2022-09-28T08:31:19.308Z,11.46
2022-09-28T08:33:47.936Z,11.67
2022-09-28T08:36:15.589Z,11.86
2022-09-28T08:38:43.492Z,11.95
2022-09-28T08:41:26.089Z,12.09
2022-09-28T08:44:15.257Z,12.26
2022-09-28T08:46:53.094Z,12.24
2022-09-28T08:49:33.443Z,12.56
2022-09-28T08:52:15.115Z,13.16
2022-09-28T08:54:49.015Z,13.52
2022-09-28T08:57:28.666Z,14.03
2022-09-28T08:59:58.410Z,14.28
2022-09-28T09:02:33.382Z,14.74
2022-09-28T09:05:06.097Z,15.10
2022-09-28T09:07:52.358Z,15.41
2022-09-28T09:10:38.966Z,15.75
2022-09-28T09:13:34.364Z,15.66
2022-09-28T09:16:02.603Z,15.77
2022-09-28T09:18:49.252Z,15.73
2022-09-28T09:21:22.423Z,15.87
2022-09-28T09:23:58.567Z,16.02
2022-09-28T09:26:38.582Z,16.21
2022-09-28T09:29:40.126Z,15.75
2022-09-28T09:32:37.201Z,15.55
2022-09-28T09:35:13.492Z,14.98
2022-09-28T09:38:09.350Z,14.72
2022-09-28T09:40:45.810Z,14.68
2022-09-28T09:43:45.030Z,14.94
2022-09-28T09:46:25.112Z,14.70
2022-09-28T09:48:58.497Z,14.76
2022-09-28T09:51:50.548Z,15.06
2022-09-28T09:54:27.249Z,15.45
2022-09-28T09:57:15.872Z,15.12
2022-09-28T09:59:45.366Z,14.94
2022-09-28T10:02:26.290Z,14.88
2022-09-28T10:04:58.488Z,15.25
2022-09-28T10:07:43.313Z,15.80
2022-09-28T10:10:23.668Z,16.27
2022-09-28T10:12:52.219Z,16.55
2022-09-28T10:15:28.237Z,16.01
2022-09-28T10:17:57.992Z,16.50
2022-09-28T10:20:25.878Z,16.61
2022-09-28T10:22:55.074Z,16.25
2022-09-28T10:25:22.749Z,16.45
2022-09-28T10:27:52.336Z,16.18
2022-09-28T10:30:23.880Z,15.81
2022-09-28T10:32:55.078Z,16.32
2022-09-28T10:35:26.978Z,16.79
2022-09-28T10:38:04.873Z,17.00
2022-09-28T10:41:02.303Z,16.74
2022-09-28T10:43:36.605Z,16.90
2022-09-28T10:46:08.630Z,16.95
2022-09-28T10:48:51.240Z,16.84
2022-09-28T10:51:18.911Z,16.37
2022-09-28T10:54:01.511Z,16.09
2022-09-28T10:56:32.796Z,15.83
2022-09-28T10:59:00.377Z,15.99
2022-09-28T11:01:33.183Z,15.92
2022-09-28T11:04:04.102Z,15.64
2022-09-28T11:06:42.694Z,15.23
2022-09-28T11:09:30.987Z,14.61
2022-09-28T11:12:01.309Z,14.34
2022-09-28T11:14:36.145Z,14.11
2022-09-28T11:17:31.430Z,13.99
2022-09-28T11:20:27.431Z,13.95
2022-09-28T11:23:15.693Z,14.45
2022-09-28T11:25:43.703Z,14.76
2022-09-28T11:28:23.273Z,14.37
2022-09-28T11:30:53.503Z,14.38
2022-09-28T11:33:34.197Z,14.13
2022-09-28T11:36:17.076Z,14.03
2022-09-28T11:39:26.054Z,13.93
2022-09-28T11:42:36.559Z,13.85
2022-09-28T11:45:19.086Z,13.78
2022-09-28T11:48:27.101Z,13.78
2022-09-28T11:51:01.184Z,14.44
2022-09-28T11:53:37.939Z,14.75
2022-09-28T11:56:21.446Z,15.47
2022-09-28T11:58:56.239Z,15.48
2022-09-28T12:01:47.258Z,15.49
2022-09-28T12:04:36.966Z,15.42
2022-09-28T12:07:17.948Z,14.99
2022-09-28T12:10:08.177Z,14.94
2022-09-28T12:12:40.489Z,15.17
2022-09-28T12:15:24.779Z,15.96
2022-09-28T12:17:58.404Z,15.97
2022-09-28T12:20:35.706Z,15.13
2022-09-28T12:23:14.020Z,14.23
2022-09-28T12:25:47.198Z,13.75
2022-09-28T12:28:22.999Z,13.02
2022-09-28T12:30:51.174Z,12.66
2022-09-28T12:33:18.788Z,12.24
2022-09-28T12:35:48.901Z,12.29
2022-09-28T12:38:34.960Z,12.21
2022-09-28T12:41:13.875Z,12.19
2022-09-28T12:44:10.070Z,12.50
2022-09-28T12:47:05.444Z,13.02
2022-09-28T12:53:20.124Z,12.90
2022-09-28T12:56:11.940Z,12.99
2022-09-28T12:58:45.398Z,13.05
2022-09-28T13:04:05.261Z,13.32
2022-09-28T13:06:52.063Z,13.38
2022-09-28T13:09:25.057Z,13.40
2022-09-28T13:12:01.358Z,13.43
2022-09-28T13:14:28.882Z,13.49
2022-09-28T13:17:00.529Z,13.49
2022-09-28T13:20:15.665Z,13.43
2022-09-28T13:23:04.875Z,13.43
2022-09-28T13:25:36.133Z,13.03
2022-09-28T13:28:06.568Z,12.97
2022-09-28T13:30:39.577Z,13.15
2022-09-28T13:33:08.881Z,13.13
2022-09-28T13:35:36.511Z,12.89
2022-09-28T13:38:19.226Z,12.96
2022-09-28T13:41:04.887Z,12.81
2022-09-28T13:43:41.302Z,12.80
2022-09-28T13:46:22.477Z,12.83
2022-09-28T13:49:01.958Z,12.86
2022-09-28T13:51:46.183Z,12.57
2022-09-28T13:54:51.665Z,12.59
2022-09-28T13:57:42.612Z,12.50
2022-09-28T14:00:28.065Z,12.55
2022-09-28T14:03:20.607Z,12.59
2022-09-28T14:06:08.056Z,12.84
2022-09-28T14:08:40.484Z,12.96
2022-09-28T14:11:37.283Z,12.75
2022-09-28T14:14:07.552Z,12.74
2022-09-28T14:16:39.082Z,12.90
2022-09-28T14:19:10.498Z,12.81
2022-09-28T14:22:18.727Z,12.99
2022-09-28T14:24:56.453Z,12.78
2022-09-28T14:27:48.661Z,12.86
2022-09-28T14:30:16.117Z,12.72
2022-09-28T14:33:00.113Z,12.63
2022-09-28T14:35:46.900Z,12.42
2022-09-28T14:38:36.006Z,12.55
2022-09-28T14:41:12.859Z,12.64
2022-09-28T14:43:46.262Z,12.81
2022-09-28T14:46:14.562Z,12.68
2022-09-28T14:49:03.470Z,12.75
2022-09-28T14:51:31.009Z,12.90
2022-09-28T14:54:19.169Z,12.99
2022-09-28T14:56:58.046Z,13.17
2022-09-28T14:59:34.546Z,13.16
2022-09-28T15:02:09.236Z,13.19
2022-09-28T15:04:43.284Z,13.35
2022-09-28T15:07:29.679Z,13.37
2022-09-28T15:09:58.959Z,13.33
2022-09-28T15:12:31.338Z,13.03
2022-09-28T15:15:08.490Z,12.76
2022-09-28T15:17:40.045Z,12.60
2022-09-28T15:20:23.180Z,12.64
2022-09-28T15:22:54.901Z,12.58
2022-09-28T15:25:25.046Z,12.55
2022-09-28T15:27:55.186Z,12.45
2022-09-28T15:30:28.970Z,12.52
2022-09-28T15:33:17.904Z,12.50
2022-09-28T15:36:01.332Z,12.51
2022-09-28T15:38:30.049Z,12.58
2022-09-28T15:40:57.748Z,12.62
2022-09-28T15:43:33.039Z,12.76
2022-09-28T15:46:13.504Z,12.83
2022-09-28T15:49:01.477Z,12.77
2022-09-28T15:51:30.444Z,12.80
2022-09-28T15:54:09.944Z,12.68
2022-09-28T15:56:59.772Z,12.75
2022-09-28T15:59:34.781Z,12.65
2022-09-28T16:02:25.175Z,12.64
2022-09-28T16:05:01.781Z,12.52
2022-09-28T16:07:39.398Z,12.47
2022-09-28T16:10:13.006Z,12.43
2022-09-28T16:12:58.808Z,12.35
2022-09-28T16:15:30.105Z,12.24
2022-09-28T16:18:01.412Z,12.18
2022-09-28T16:20:54.839Z,12.12
2022-09-28T16:23:27.834Z,12.07
2022-09-28T16:26:00.152Z,12.04
2022-09-28T16:28:48.865Z,11.99
2022-09-28T16:31:16.426Z,11.94
2022-09-28T16:33:54.997Z,11.90
2022-09-28T16:36:23.659Z,11.82
2022-09-28T16:38:51.306Z,11.74
2022-09-28T16:41:23.894Z,11.73
2022-09-28T16:43:57.470Z,11.67
2022-09-28T16:46:31.110Z,11.67
2022-09-28T16:48:59.760Z,11.61
2022-09-28T16:51:27.281Z,11.59
2022-09-28T16:54:12.062Z,11.59
2022-09-28T16:56:39.791Z,11.52
2022-09-28T16:59:13.631Z,11.49
2022-09-28T17:01:43.944Z,11.43
2022-09-28T17:04:12.053Z,11.35
2022-09-28T17:06:39.797Z,11.32
2022-09-28T17:09:07.940Z,11.19
2022-09-28T17:11:35.433Z,11.15
2022-09-28T17:14:03.486Z,11.05
2022-09-28T17:16:59.887Z,11.01
2022-09-28T17:19:26.817Z,10.94
2022-09-28T17:21:54.348Z,10.91
2022-09-28T17:24:22.221Z,10.83
2022-09-28T17:26:51.949Z,10.76
2022-09-28T17:29:20.406Z,10.61
2022-09-28T17:31:48.641Z,10.64
2022-09-28T17:34:17.013Z,10.39
2022-09-28T17:36:45.212Z,10.56
2022-09-28T17:39:18.489Z,10.51
2022-09-28T17:41:46.431Z,10.43
2022-09-28T17:44:16.239Z,10.35
2022-09-28T17:46:48.663Z,10.36
2022-09-28T17:49:16.834Z,10.31
2022-09-28T17:51:44.406Z,10.27
2022-09-28T17:54:12.913Z,10.26
2022-09-28T17:56:40.478Z,10.24
2022-09-28T17:59:13.547Z,10.20
2022-09-28T18:01:41.826Z,10.16
2022-09-28T18:04:23.004Z,10.16
2022-09-28T18:06:55.434Z,10.14
2022-09-28T18:09:25.223Z,10.09
2022-09-28T18:12:00.907Z,10.07
2022-09-28T18:14:28.983Z,10.01
2022-09-28T18:16:56.555Z,10.02
2022-09-28T18:19:28.593Z,10.00
2022-09-28T18:21:59.437Z,9.97
2022-09-28T18:24:26.954Z,9.97
2022-09-28T18:26:54.523Z,9.92
2022-09-28T18:29:22.047Z,9.89
2022-09-28T18:31:49.797Z,9.92
2022-09-28T18:34:17.606Z,9.90
2022-09-28T18:36:45.481Z,9.90
2022-09-28T18:39:13.038Z,9.90
2022-09-28T18:41:40.651Z,9.93
2022-09-28T18:44:08.188Z,9.94
2022-09-28T18:46:36.572Z,9.94
2022-09-28T18:49:05.255Z,9.97
2022-09-28T18:51:32.850Z,9.99
2022-09-28T18:54:07.097Z,9.95
2022-09-28T18:56:37.973Z,9.96
2022-09-28T18:59:11.871Z,9.99
2022-09-28T19:01:41.551Z,9.99
2022-09-28T19:04:11.234Z,9.97
2022-09-28T19:06:41.738Z,9.95
2022-09-28T19:09:09.996Z,9.95
2022-09-28T19:11:37.597Z,9.95
2022-09-28T19:14:05.068Z,9.93
2022-09-28T19:16:33.649Z,9.98
2022-09-28T19:19:03.001Z,9.95
2022-09-28T19:21:31.071Z,9.95
2022-09-28T19:24:01.724Z,9.94
2022-09-28T19:26:30.106Z,9.87
2022-09-28T19:28:58.893Z,9.94
2022-09-28T19:31:27.546Z,9.92
2022-09-28T19:33:55.155Z,9.87
2022-09-28T19:36:25.455Z,9.90
2022-09-28T19:38:53.373Z,9.86
2022-09-28T19:41:44.403Z,9.83
2022-09-28T19:44:25.707Z,9.82
2022-09-28T19:47:07.016Z,9.75
2022-09-28T19:49:37.149Z,9.70
2022-09-28T19:52:14.227Z,9.63
2022-09-28T19:54:56.686Z,9.54
2022-09-28T19:57:29.474Z,9.49
2022-09-28T20:00:02.094Z,9.43
2022-09-28T20:02:30.310Z,9.36
2022-09-28T20:04:57.944Z,9.27
2022-09-28T20:07:25.526Z,9.21
2022-09-28T20:09:52.961Z,9.14
2022-09-28T20:12:20.526Z,9.09
2022-09-28T20:14:47.969Z,9.04
2022-09-28T20:17:15.430Z,9.04
2022-09-28T20:19:42.926Z,8.97
2022-09-28T20:22:12.091Z,8.90
2022-09-28T20:24:39.544Z,8.84
2022-09-28T20:27:07.146Z,8.79
2022-09-28T20:29:35.182Z,8.74
2022-09-28T20:32:03.941Z,8.71
2022-09-28T20:34:33.471Z,8.64
2022-09-28T20:37:01.029Z,8.62
2022-09-28T20:39:28.676Z,8.54
2022-09-28T20:41:57.365Z,8.54
2022-09-28T20:44:24.903Z,8.50
2022-09-28T20:46:52.816Z,8.47
2022-09-28T20:49:20.448Z,8.44
2022-09-28T20:51:48.027Z,8.36
2022-09-28T20:54:15.489Z,8.33
2022-09-28T20:56:42.962Z,8.30
2022-09-28T20:59:13.720Z,8.24
2022-09-28T21:01:41.823Z,8.20
2022-09-28T21:04:11.175Z,8.14
2022-09-28T21:06:41.327Z,8.10
2022-09-28T21:09:10.860Z,8.06
2022-09-28T21:11:39.768Z,7.99
2022-09-28T21:14:10.181Z,7.98
2022-09-28T21:16:38.455Z,7.95
2022-09-28T21:19:05.902Z,7.91
2022-09-28T21:21:33.435Z,7.88
2022-09-28T21:24:00.911Z,7.83
2022-09-28T21:26:29.897Z,7.78
2022-09-28T21:29:02.739Z,7.73
2022-09-28T21:31:33.592Z,7.71
2022-09-28T21:34:01.310Z,7.66
2022-09-28T21:36:28.964Z,7.61
2022-09-28T21:38:56.580Z,7.60
2022-09-28T21:41:25.274Z,7.57
2022-09-28T21:43:53.699Z,7.49
2022-09-28T21:46:21.483Z,7.45
2022-09-28T21:48:53.518Z,7.43
2022-09-28T21:51:21.603Z,7.36
2022-09-28T21:53:49.634Z,7.39
2022-09-28T21:56:17.510Z,7.23
2022-09-28T21:58:44.954Z,7.35
2022-09-28T22:01:16.723Z,7.30
2022-09-28T22:03:46.603Z,7.29
2022-09-28T22:06:14.714Z,7.26
2022-09-28T22:08:42.402Z,7.13
2022-09-28T22:11:13.018Z,7.18
2022-09-28T22:13:42.038Z,7.15
2022-09-28T22:16:10.790Z,7.10
2022-09-28T22:18:38.660Z,7.09
2022-09-28T22:21:18.088Z,7.06
2022-09-28T22:23:45.678Z,7.03
2022-09-28T22:26:19.432Z,7.00
2022-09-28T22:28:49.840Z,6.94
2022-09-28T22:31:19.139Z,6.92
2022-09-28T22:33:46.698Z,6.90
2022-09-28T22:36:16.934Z,6.88
2022-09-28T22:38:45.434Z,6.82
2022-09-28T22:41:15.842Z,6.78
2022-09-28T22:43:44.312Z,6.78
2022-09-28T22:46:17.528Z,6.79
2022-09-28T22:48:49.740Z,6.77
2022-09-28T22:51:18.165Z,6.76
2022-09-28T22:53:46.061Z,6.76
2022-09-28T22:56:18.396Z,6.70
2022-09-28T22:58:47.287Z,6.72
2022-09-28T23:01:17.700Z,6.70
2022-09-28T23:03:45.694Z,6.67
2022-09-28T23:06:16.466Z,6.66
2022-09-28T23:08:45.501Z,6.61
2022-09-28T23:11:13.190Z,6.62
2022-09-28T23:13:40.658Z,6.54
2022-09-28T23:16:11.415Z,6.56
2022-09-28T23:18:40.872Z,6.55
2022-09-28T23:21:13.176Z,6.55
2022-09-28T23:23:40.643Z,6.53
2022-09-28T23:26:19.126Z,6.50
2022-09-28T23:28:46.957Z,6.49
2022-09-28T23:31:23.303Z,6.47
2022-09-28T23:33:51.425Z,6.40
2022-09-28T23:36:19.402Z,6.38
2022-09-28T23:38:46.935Z,6.37
2022-09-28T23:41:14.410Z,6.33
2022-09-28T23:43:41.881Z,6.31
2022-09-28T23:46:09.448Z,6.29
2022-09-28T23:48:37.027Z,6.29
2022-09-28T23:51:04.666Z,6.29
2022-09-28T23:53:33.329Z,6.31
2022-09-28T23:56:01.071Z,6.32
2022-09-28T23:58:28.577Z,6.29
